Bow Kiso — 3EPY3 — position and weather

sailwx.info

Track history (hours):
 
Tides and Currents Weather Stations Pressure Air Temp Water Temp Dewpoint Dewpoint Depression Visibility Wind Speed Wind Dir Waves Ship Positions

Bow Kiso

Last reported at 2017-Nov-19 10:10 UTC. Time now 2017-Nov-21 15:45 UTC.
Position N 29°44' W 095°15'.

Length 170 m; draft 9 m.

Type: Ship (hazmat cat A). MMSI: 356958000.

Date/timePositionNaut miles runAvg speedWind from/ knotsBaromVisibWave heightAir tempDewpointWater temp
2017-Nov-19 10:10N 29°44' W 095°15'1 5.0
2017-Nov-19 09:59N 29°43' W 095°14'3 5.4
2017-Nov-19 09:28N 29°45' W 095°12'3 6.3
2017-Nov-19 09:00N 29°44' W 095°08'3 6.9
2017-Nov-19 08:30N 29°46' W 095°05'4 7.7
2017-Nov-19 08:00N 29°43' W 095°01'4 8.0
2017-Nov-19 07:31N 29°40' W 094°59'611.5
2017-Nov-19 07:00N 29°35' W 094°56'611.3
2017-Nov-19 06:30N 29°30' W 094°52'510.5
2017-Nov-19 06:00N 29°25' W 094°50'5 9.3
2017-Nov-19 05:29N 29°21' W 094°47'11 1.2
2017-Nov-18 20:00N 29°31' W 094°53'611.9
2017-Nov-18 19:30N 29°36' W 094°57'611.4
2017-Nov-18 19:00N 29°41' W 094°59'4 8.7
2017-Nov-18 18:30N 29°44' W 095°03'4 0.2
2017-Nov-17 15:19N 29°44' W 095°08'0 0.0
2017-Nov-17 14:56N 29°44' W 095°08'0 0.1
2017-Nov-17 14:30N 29°44' W 095°08'2 0.0
2017-Nov-15 20:23N 29°45' W 095°06'0 0.0
2017-Nov-15 19:56N 29°45' W 095°06'0 0.0
2017-Nov-15 19:26N 29°45' W 095°06'0 0.0
2017-Nov-15 18:59N 29°45' W 095°06'0 0.0
2017-Nov-15 18:30N 29°45' W 095°06'1 1.2
2017-Nov-15 17:56N 29°45' W 095°06'2 5.5
2017-Nov-15 17:30N 29°44' W 095°03'3 6.8
2017-Nov-15 17:01N 29°42' W 095°00'5 9.5
2017-Nov-15 16:31N 29°38' W 094°58'510.7
2017-Nov-15 16:00N 29°33' W 094°55'510.6
2017-Nov-15 15:30N 29°29' W 094°51'510.3
2017-Nov-15 15:00N 29°24' W 094°49'5 8.9
2017-Nov-15 14:28N 29°21' W 094°45'  
2017-Nov-09 15:30N 26°10' W 079°27'  
Track history (hours):
 
Tides and Currents Weather Stations Pressure Air Temp Water Temp Dewpoint Dewpoint Depression Visibility Wind Speed Wind Dir Waves Ship Positions

Bow Kiso

Last reported at 2017-Nov-19 10:10 UTC. Time now 2017-Nov-21 15:45 UTC.
Position N 29°44' W 095°15'.

Length 170 m; draft 9 m.

Type: Ship (hazmat cat A). MMSI: 356958000.

Date/timePositionNaut miles runAvg speedWind from/ knotsBaromVisibWave heightAir tempDewpointWater temp
2017-Nov-19 10:10N 29°44' W 095°15'1 5.0
2017-Nov-19 09:59N 29°43' W 095°14'3 5.4
2017-Nov-19 09:28N 29°45' W 095°12'3 6.3
2017-Nov-19 09:00N 29°44' W 095°08'3 6.9
2017-Nov-19 08:30N 29°46' W 095°05'4 7.7
2017-Nov-19 08:00N 29°43' W 095°01'4 8.0
2017-Nov-19 07:31N 29°40' W 094°59'611.5
2017-Nov-19 07:00N 29°35' W 094°56'611.3
2017-Nov-19 06:30N 29°30' W 094°52'510.5
2017-Nov-19 06:00N 29°25' W 094°50'5 9.3
2017-Nov-19 05:29N 29°21' W 094°47'11 1.2
2017-Nov-18 20:00N 29°31' W 094°53'611.9
2017-Nov-18 19:30N 29°36' W 094°57'611.4
2017-Nov-18 19:00N 29°41' W 094°59'4 8.7
2017-Nov-18 18:30N 29°44' W 095°03'4 0.2
2017-Nov-17 15:19N 29°44' W 095°08'0 0.0
2017-Nov-17 14:56N 29°44' W 095°08'0 0.1
2017-Nov-17 14:30N 29°44' W 095°08'2 0.0
2017-Nov-15 20:23N 29°45' W 095°06'0 0.0
2017-Nov-15 19:56N 29°45' W 095°06'0 0.0
2017-Nov-15 19:26N 29°45' W 095°06'0 0.0
2017-Nov-15 18:59N 29°45' W 095°06'0 0.0
2017-Nov-15 18:30N 29°45' W 095°06'1 1.2
2017-Nov-15 17:56N 29°45' W 095°06'2 5.5
2017-Nov-15 17:30N 29°44' W 095°03'3 6.8
2017-Nov-15 17:01N 29°42' W 095°00'5 9.5
2017-Nov-15 16:31N 29°38' W 094°58'510.7
2017-Nov-15 16:00N 29°33' W 094°55'510.6
2017-Nov-15 15:30N 29°29' W 094°51'510.3
2017-Nov-15 15:00N 29°24' W 094°49'5 8.9
2017-Nov-15 14:28N 29°21' W 094°45'  
2017-Nov-09 15:30N 26°10' W 079°27'  

Dump ship's entire track history